sensor_id;sensor_type;location;lat;lon;timestamp;P1;durP1;ratioP1;P2;durP2;ratioP2
56373;SDS011;58212;47.034;7.376;2023-04-03T00:01:04;0.93;;;0.50;;
56373;SDS011;58212;47.034;7.376;2023-04-03T00:03:31;0.90;;;0.77;;
56373;SDS011;58212;47.034;7.376;2023-04-03T00:05:59;1.23;;;0.70;;
56373;SDS011;58212;47.034;7.376;2023-04-03T00:08:26;0.85;;;0.68;;
56373;SDS011;58212;47.034;7.376;2023-04-03T00:10:57;1.50;;;1.05;;
56373;SDS011;58212;47.034;7.376;2023-04-03T00:13:23;0.35;;;0.30;;
56373;SDS011;58212;47.034;7.376;2023-04-03T00:15:51;0.57;;;0.50;;
56373;SDS011;58212;47.034;7.376;2023-04-03T00:18:18;0.40;;;0.40;;
56373;SDS011;58212;47.034;7.376;2023-04-03T00:20:44;0.70;;;0.50;;
56373;SDS011;58212;47.034;7.376;2023-04-03T00:23:11;1.10;;;0.47;;
56373;SDS011;58212;47.034;7.376;2023-04-03T00:25:38;1.50;;;0.55;;
56373;SDS011;58212;47.034;7.376;2023-04-03T00:28:07;1.17;;;0.30;;
56373;SDS011;58212;47.034;7.376;2023-04-03T00:30:34;0.43;;;0.43;;
56373;SDS011;58212;47.034;7.376;2023-04-03T00:33:01;0.77;;;0.40;;
56373;SDS011;58212;47.034;7.376;2023-04-03T00:35:28;0.93;;;0.45;;
56373;SDS011;58212;47.034;7.376;2023-04-03T00:37:55;0.57;;;0.55;;
56373;SDS011;58212;47.034;7.376;2023-04-03T00:40:23;0.73;;;0.50;;
56373;SDS011;58212;47.034;7.376;2023-04-03T00:42:55;0.30;;;0.30;;
56373;SDS011;58212;47.034;7.376;2023-04-03T00:45:29;1.00;;;0.30;;
56373;SDS011;58212;47.034;7.376;2023-04-03T00:47:59;0.60;;;0.40;;
56373;SDS011;58212;47.034;7.376;2023-04-03T00:50:31;0.88;;;0.60;;
56373;SDS011;58212;47.034;7.376;2023-04-03T00:53:00;0.40;;;0.40;;
56373;SDS011;58212;47.034;7.376;2023-04-03T00:55:28;0.60;;;0.60;;
56373;SDS011;58212;47.034;7.376;2023-04-03T00:57:57;1.40;;;0.93;;
56373;SDS011;58212;47.034;7.376;2023-04-03T01:00:25;0.77;;;0.70;;
56373;SDS011;58212;47.034;7.376;2023-04-03T01:02:58;0.75;;;0.70;;
56373;SDS011;58212;47.034;7.376;2023-04-03T01:05:27;1.10;;;1.00;;
56373;SDS011;58212;47.034;7.376;2023-04-03T01:07:54;1.00;;;0.90;;
56373;SDS011;58212;47.034;7.376;2023-04-03T01:10:21;0.85;;;0.85;;
56373;SDS011;58212;47.034;7.376;2023-04-03T01:12:50;1.20;;;1.20;;
56373;SDS011;58212;47.034;7.376;2023-04-03T01:15:19;1.10;;;1.00;;
56373;SDS011;58212;47.034;7.376;2023-04-03T01:17:48;1.00;;;1.00;;
56373;SDS011;58212;47.034;7.376;2023-04-03T01:23:35;1.25;;;1.10;;
56373;SDS011;58212;47.034;7.376;2023-04-03T01:26:12;1.25;;;1.15;;
56373;SDS011;58212;47.034;7.376;2023-04-03T01:29:04;1.20;;;1.10;;
56373;SDS011;58212;47.034;7.376;2023-04-03T01:31:58;2.78;;;1.40;;
56373;SDS011;58212;47.034;7.376;2023-04-03T01:34:29;1.30;;;1.20;;
56373;SDS011;58212;47.034;7.376;2023-04-03T01:36:59;1.42;;;1.20;;
56373;SDS011;58212;47.034;7.376;2023-04-03T01:39:26;1.15;;;1.05;;
56373;SDS011;58212;47.034;7.376;2023-04-03T01:41:53;1.13;;;1.10;;
56373;SDS011;58212;47.034;7.376;2023-04-03T01:44:30;1.23;;;1.13;;
56373;SDS011;58212;47.034;7.376;2023-04-03T01:47:00;0.93;;;0.80;;
56373;SDS011;58212;47.034;7.376;2023-04-03T01:49:28;0.80;;;0.80;;
56373;SDS011;58212;47.034;7.376;2023-04-03T01:51:56;0.70;;;0.70;;
56373;SDS011;58212;47.034;7.376;2023-04-03T01:54:23;0.68;;;0.68;;
56373;SDS011;58212;47.034;7.376;2023-04-03T01:56:50;0.90;;;0.90;;
56373;SDS011;58212;47.034;7.376;2023-04-03T01:59:18;0.80;;;0.80;;
56373;SDS011;58212;47.034;7.376;2023-04-03T02:01:45;0.88;;;0.88;;
56373;SDS011;58212;47.034;7.376;2023-04-03T02:04:13;1.15;;;0.95;;
56373;SDS011;58212;47.034;7.376;2023-04-03T02:06:40;0.80;;;0.80;;
56373;SDS011;58212;47.034;7.376;2023-04-03T02:09:07;0.90;;;0.90;;
56373;SDS011;58212;47.034;7.376;2023-04-03T02:11:34;1.00;;;0.90;;
56373;SDS011;58212;47.034;7.376;2023-04-03T02:14:01;0.88;;;0.88;;
56373;SDS011;58212;47.034;7.376;2023-04-03T02:16:28;1.15;;;0.93;;
56373;SDS011;58212;47.034;7.376;2023-04-03T02:18:56;1.20;;;1.10;;
56373;SDS011;58212;47.034;7.376;2023-04-03T02:21:24;0.80;;;0.80;;
56373;SDS011;58212;47.034;7.376;2023-04-03T02:23:52;1.30;;;1.02;;
56373;SDS011;58212;47.034;7.376;2023-04-03T02:26:19;1.60;;;1.50;;
56373;SDS011;58212;47.034;7.376;2023-04-03T02:28:46;1.65;;;1.55;;
56373;SDS011;58212;47.034;7.376;2023-04-03T02:31:13;2.33;;;2.13;;
56373;SDS011;58212;47.034;7.376;2023-04-03T02:33:45;2.90;;;2.60;;
56373;SDS011;58212;47.034;7.376;2023-04-03T02:36:14;3.17;;;2.80;;
56373;SDS011;58212;47.034;7.376;2023-04-03T02:38:45;3.05;;;2.80;;
56373;SDS011;58212;47.034;7.376;2023-04-03T02:41:13;3.40;;;2.92;;
56373;SDS011;58212;47.034;7.376;2023-04-03T02:43:40;3.47;;;3.25;;
56373;SDS011;58212;47.034;7.376;2023-04-03T02:46:07;3.40;;;3.13;;
56373;SDS011;58212;47.034;7.376;2023-04-03T02:48:35;4.45;;;4.05;;
56373;SDS011;58212;47.034;7.376;2023-04-03T02:51:03;4.65;;;4.25;;
56373;SDS011;58212;47.034;7.376;2023-04-03T02:53:30;4.35;;;3.95;;
56373;SDS011;58212;47.034;7.376;2023-04-03T02:56:03;4.78;;;4.38;;
56373;SDS011;58212;47.034;7.376;2023-04-03T02:58:30;4.65;;;4.25;;
56373;SDS011;58212;47.034;7.376;2023-04-03T03:00:59;5.00;;;4.47;;
56373;SDS011;58212;47.034;7.376;2023-04-03T03:03:25;5.28;;;4.65;;
56373;SDS011;58212;47.034;7.376;2023-04-03T03:06:00;4.95;;;4.55;;
56373;SDS011;58212;47.034;7.376;2023-04-03T03:08:28;5.75;;;5.00;;
56373;SDS011;58212;47.034;7.376;2023-04-03T03:10:54;5.57;;;5.07;;
56373;SDS011;58212;47.034;7.376;2023-04-03T03:13:23;6.05;;;5.55;;
56373;SDS011;58212;47.034;7.376;2023-04-03T03:15:50;5.72;;;5.25;;
56373;SDS011;58212;47.034;7.376;2023-04-03T03:18:17;5.63;;;5.13;;
56373;SDS011;58212;47.034;7.376;2023-04-03T03:20:44;5.45;;;4.95;;
56373;SDS011;58212;47.034;7.376;2023-04-03T03:23:11;5.82;;;5.30;;
56373;SDS011;58212;47.034;7.376;2023-04-03T03:25:38;6.00;;;5.00;;
56373;SDS011;58212;47.034;7.376;2023-04-03T03:28:06;6.72;;;6.07;;
56373;SDS011;58212;47.034;7.376;2023-04-03T03:30:35;6.82;;;6.15;;
56373;SDS011;58212;47.034;7.376;2023-04-03T03:33:02;7.18;;;6.47;;
56373;SDS011;58212;47.034;7.376;2023-04-03T03:35:29;6.57;;;5.97;;
56373;SDS011;58212;47.034;7.376;2023-04-03T03:37:56;6.25;;;5.72;;
56373;SDS011;58212;47.034;7.376;2023-04-03T03:40:23;6.45;;;5.80;;
56373;SDS011;58212;47.034;7.376;2023-04-03T03:42:50;6.53;;;5.93;;
56373;SDS011;58212;47.034;7.376;2023-04-03T03:45:17;6.85;;;6.28;;
56373;SDS011;58212;47.034;7.376;2023-04-03T03:47:45;7.60;;;6.75;;
56373;SDS011;58212;47.034;7.376;2023-04-03T03:50:12;7.30;;;6.70;;
56373;SDS011;58212;47.034;7.376;2023-04-03T03:52:39;7.80;;;7.10;;
56373;SDS011;58212;47.034;7.376;2023-04-03T03:55:07;7.93;;;7.22;;
56373;SDS011;58212;47.034;7.376;2023-04-03T03:57:35;8.10;;;7.30;;
56373;SDS011;58212;47.034;7.376;2023-04-03T04:00:05;8.20;;;7.50;;
56373;SDS011;58212;47.034;7.376;2023-04-03T04:02:40;8.18;;;7.38;;
56373;SDS011;58212;47.034;7.376;2023-04-03T04:05:14;8.05;;;7.35;;
56373;SDS011;58212;47.034;7.376;2023-04-03T04:07:42;8.50;;;7.70;;
56373;SDS011;58212;47.034;7.376;2023-04-03T04:10:10;7.70;;;7.00;;
56373;SDS011;58212;47.034;7.376;2023-04-03T04:12:38;8.02;;;7.30;;
56373;SDS011;58212;47.034;7.376;2023-04-03T04:15:06;7.53;;;6.88;;
56373;SDS011;58212;47.034;7.376;2023-04-03T04:17:34;8.48;;;7.68;;
56373;SDS011;58212;47.034;7.376;2023-04-03T04:20:02;9.02;;;7.63;;
56373;SDS011;58212;47.034;7.376;2023-04-03T04:22:34;8.60;;;7.80;;
56373;SDS011;58212;47.034;7.376;2023-04-03T04:25:01;8.20;;;7.50;;
56373;SDS011;58212;47.034;7.376;2023-04-03T04:27:28;8.00;;;7.30;;
56373;SDS011;58212;47.034;7.376;2023-04-03T04:29:56;7.47;;;6.88;;
56373;SDS011;58212;47.034;7.376;2023-04-03T04:32:23;8.52;;;7.72;;
56373;SDS011;58212;47.034;7.376;2023-04-03T04:34:51;8.48;;;7.70;;
56373;SDS011;58212;47.034;7.376;2023-04-03T04:37:18;8.05;;;7.30;;
56373;SDS011;58212;47.034;7.376;2023-04-03T04:39:48;8.75;;;8.05;;
56373;SDS011;58212;47.034;7.376;2023-04-03T04:42:15;8.63;;;7.65;;
56373;SDS011;58212;47.034;7.376;2023-04-03T04:44:43;7.82;;;7.13;;
56373;SDS011;58212;47.034;7.376;2023-04-03T04:47:12;8.82;;;8.02;;
56373;SDS011;58212;47.034;7.376;2023-04-03T04:49:40;8.32;;;7.53;;
56373;SDS011;58212;47.034;7.376;2023-04-03T04:52:08;8.88;;;7.53;;
56373;SDS011;58212;47.034;7.376;2023-04-03T04:54:37;9.23;;;8.32;;
56373;SDS011;58212;47.034;7.376;2023-04-03T04:57:06;8.80;;;8.00;;
56373;SDS011;58212;47.034;7.376;2023-04-03T04:59:33;8.23;;;7.45;;
56373;SDS011;58212;47.034;7.376;2023-04-03T05:02:01;8.32;;;7.63;;
56373;SDS011;58212;47.034;7.376;2023-04-03T05:04:29;8.00;;;7.30;;
56373;SDS011;58212;47.034;7.376;2023-04-03T05:07:03;8.13;;;7.43;;
56373;SDS011;58212;47.034;7.376;2023-04-03T05:09:33;7.85;;;7.10;;
56373;SDS011;58212;47.034;7.376;2023-04-03T05:12:00;9.20;;;8.30;;
56373;SDS011;58212;47.034;7.376;2023-04-03T05:14:34;9.05;;;8.15;;
56373;SDS011;58212;47.034;7.376;2023-04-03T05:17:05;9.20;;;8.35;;
56373;SDS011;58212;47.034;7.376;2023-04-03T05:19:36;9.32;;;8.52;;
56373;SDS011;58212;47.034;7.376;2023-04-03T05:22:06;8.88;;;8.07;;
56373;SDS011;58212;47.034;7.376;2023-04-03T05:24:34;8.73;;;7.93;;
56373;SDS011;58212;47.034;7.376;2023-04-03T05:27:01;7.93;;;7.30;;
56373;SDS011;58212;47.034;7.376;2023-04-03T05:29:30;9.60;;;8.27;;
56373;SDS011;58212;47.034;7.376;2023-04-03T05:32:00;7.97;;;7.25;;
56373;SDS011;58212;47.034;7.376;2023-04-03T05:34:27;7.72;;;7.03;;
56373;SDS011;58212;47.034;7.376;2023-04-03T05:36:55;7.10;;;6.50;;
56373;SDS011;58212;47.034;7.376;2023-04-03T05:39:24;7.88;;;7.18;;
56373;SDS011;58212;47.034;7.376;2023-04-03T05:41:51;7.82;;;7.03;;
56373;SDS011;58212;47.034;7.376;2023-04-03T05:44:18;8.40;;;7.60;;
56373;SDS011;58212;47.034;7.376;2023-04-03T05:46:47;7.65;;;6.95;;
56373;SDS011;58212;47.034;7.376;2023-04-03T05:49:15;8.10;;;7.40;;
56373;SDS011;58212;47.034;7.376;2023-04-03T05:51:42;7.32;;;6.63;;
56373;SDS011;58212;47.034;7.376;2023-04-03T05:54:22;7.13;;;6.43;;
56373;SDS011;58212;47.034;7.376;2023-04-03T05:56:54;7.88;;;7.18;;
56373;SDS011;58212;47.034;7.376;2023-04-03T05:59:23;8.40;;;7.60;;
56373;SDS011;58212;47.034;7.376;2023-04-03T06:01:52;7.20;;;6.60;;
56373;SDS011;58212;47.034;7.376;2023-04-03T06:04:21;6.43;;;5.93;;
56373;SDS011;58212;47.034;7.376;2023-04-03T06:06:49;7.40;;;6.80;;
56373;SDS011;58212;47.034;7.376;2023-04-03T06:09:18;7.47;;;6.78;;
56373;SDS011;58212;47.034;7.376;2023-04-03T06:11:47;7.38;;;6.65;;
56373;SDS011;58212;47.034;7.376;2023-04-03T06:14:15;7.28;;;6.68;;
56373;SDS011;58212;47.034;7.376;2023-04-03T06:16:42;6.97;;;6.30;;
56373;SDS011;58212;47.034;7.376;2023-04-03T06:19:10;7.43;;;6.72;;
56373;SDS011;58212;47.034;7.376;2023-04-03T06:21:44;7.18;;;6.57;;
56373;SDS011;58212;47.034;7.376;2023-04-03T06:24:12;7.93;;;7.13;;
56373;SDS011;58212;47.034;7.376;2023-04-03T06:26:41;7.10;;;6.50;;
56373;SDS011;58212;47.034;7.376;2023-04-03T06:29:08;7.32;;;6.65;;
56373;SDS011;58212;47.034;7.376;2023-04-03T06:31:35;8.10;;;7.40;;
56373;SDS011;58212;47.034;7.376;2023-04-03T06:34:02;7.97;;;7.28;;
56373;SDS011;58212;47.034;7.376;2023-04-03T06:36:30;8.55;;;7.85;;
56373;SDS011;58212;47.034;7.376;2023-04-03T06:38:59;7.90;;;7.20;;
56373;SDS011;58212;47.034;7.376;2023-04-03T06:41:26;8.25;;;7.55;;
56373;SDS011;58212;47.034;7.376;2023-04-03T06:43:53;8.80;;;7.93;;
56373;SDS011;58212;47.034;7.376;2023-04-03T06:46:22;8.77;;;7.95;;
56373;SDS011;58212;47.034;7.376;2023-04-03T06:48:49;8.30;;;7.50;;
56373;SDS011;58212;47.034;7.376;2023-04-03T06:51:17;7.97;;;7.38;;
56373;SDS011;58212;47.034;7.376;2023-04-03T06:53:46;8.30;;;7.60;;
56373;SDS011;58212;47.034;7.376;2023-04-03T06:56:14;8.70;;;7.90;;
56373;SDS011;58212;47.034;7.376;2023-04-03T06:58:41;8.88;;;7.97;;
56373;SDS011;58212;47.034;7.376;2023-04-03T07:01:10;8.27;;;7.47;;
56373;SDS011;58212;47.034;7.376;2023-04-03T07:03:38;7.72;;;7.03;;
56373;SDS011;58212;47.034;7.376;2023-04-03T07:06:05;7.50;;;6.80;;
56373;SDS011;58212;47.034;7.376;2023-04-03T07:08:33;8.13;;;7.40;;
56373;SDS011;58212;47.034;7.376;2023-04-03T07:11:00;7.45;;;6.85;;
56373;SDS011;58212;47.034;7.376;2023-04-03T07:13:29;8.00;;;7.20;;
56373;SDS011;58212;47.034;7.376;2023-04-03T07:15:56;7.18;;;6.57;;
56373;SDS011;58212;47.034;7.376;2023-04-03T07:18:23;7.03;;;6.40;;
56373;SDS011;58212;47.034;7.376;2023-04-03T07:20:51;7.30;;;6.70;;
56373;SDS011;58212;47.034;7.376;2023-04-03T07:23:18;6.80;;;6.20;;
56373;SDS011;58212;47.034;7.376;2023-04-03T07:25:46;6.88;;;6.28;;
56373;SDS011;58212;47.034;7.376;2023-04-03T07:28:14;7.05;;;6.45;;
56373;SDS011;58212;47.034;7.376;2023-04-03T07:30:44;7.90;;;7.20;;
56373;SDS011;58212;47.034;7.376;2023-04-03T07:33:11;7.55;;;6.85;;
56373;SDS011;58212;47.034;7.376;2023-04-03T07:35:39;7.20;;;6.60;;
56373;SDS011;58212;47.034;7.376;2023-04-03T07:38:07;7.32;;;6.63;;
56373;SDS011;58212;47.034;7.376;2023-04-03T07:40:35;7.85;;;7.15;;
56373;SDS011;58212;47.034;7.376;2023-04-03T07:43:02;8.00;;;7.20;;
56373;SDS011;58212;47.034;7.376;2023-04-03T07:45:30;7.53;;;6.85;;
56373;SDS011;58212;47.034;7.376;2023-04-03T07:47:59;8.05;;;7.35;;
56373;SDS011;58212;47.034;7.376;2023-04-03T07:50:27;7.90;;;6.68;;
56373;SDS011;58212;47.034;7.376;2023-04-03T07:52:55;7.25;;;6.65;;
56373;SDS011;58212;47.034;7.376;2023-04-03T07:55:23;6.85;;;6.25;;
56373;SDS011;58212;47.034;7.376;2023-04-03T07:57:50;7.28;;;6.57;;
56373;SDS011;58212;47.034;7.376;2023-04-03T08:00:18;7.57;;;6.93;;
56373;SDS011;58212;47.034;7.376;2023-04-03T08:02:45;7.68;;;6.97;;
56373;SDS011;58212;47.034;7.376;2023-04-03T08:05:17;7.22;;;6.63;;
56373;SDS011;58212;47.034;7.376;2023-04-03T08:07:44;7.10;;;6.40;;
56373;SDS011;58212;47.034;7.376;2023-04-03T08:10:11;6.90;;;5.90;;
56373;SDS011;58212;47.034;7.376;2023-04-03T08:12:39;6.57;;;5.97;;
56373;SDS011;58212;47.034;7.376;2023-04-03T08:15:06;6.82;;;6.18;;
56373;SDS011;58212;47.034;7.376;2023-04-03T08:17:34;6.20;;;5.60;;
56373;SDS011;58212;47.034;7.376;2023-04-03T08:20:02;6.65;;;6.05;;
56373;SDS011;58212;47.034;7.376;2023-04-03T08:22:31;6.00;;;5.40;;
56373;SDS011;58212;47.034;7.376;2023-04-03T08:24:59;5.55;;;5.07;;
56373;SDS011;58212;47.034;7.376;2023-04-03T08:27:26;5.40;;;4.90;;
56373;SDS011;58212;47.034;7.376;2023-04-03T08:29:56;5.10;;;4.70;;
56373;SDS011;58212;47.034;7.376;2023-04-03T08:32:23;5.35;;;4.85;;
56373;SDS011;58212;47.034;7.376;2023-04-03T08:34:52;5.28;;;4.82;;
56373;SDS011;58212;47.034;7.376;2023-04-03T08:37:19;4.82;;;4.43;;
56373;SDS011;58212;47.034;7.376;2023-04-03T08:39:47;4.82;;;4.43;;
56373;SDS011;58212;47.034;7.376;2023-04-03T08:42:16;6.10;;;4.80;;
56373;SDS011;58212;47.034;7.376;2023-04-03T08:44:52;5.68;;;4.88;;
56373;SDS011;58212;47.034;7.376;2023-04-03T08:47:28;4.53;;;4.15;;
56373;SDS011;58212;47.034;7.376;2023-04-03T08:50:03;6.13;;;5.53;;
56373;SDS011;58212;47.034;7.376;2023-04-03T08:52:36;5.03;;;4.63;;
56373;SDS011;58212;47.034;7.376;2023-04-03T08:55:12;5.60;;;5.10;;
56373;SDS011;58212;47.034;7.376;2023-04-03T08:57:46;5.43;;;4.93;;
56373;SDS011;58212;47.034;7.376;2023-04-03T09:00:16;4.40;;;4.00;;
56373;SDS011;58212;47.034;7.376;2023-04-03T09:02:45;4.93;;;4.45;;
56373;SDS011;58212;47.034;7.376;2023-04-03T09:05:14;5.72;;;5.25;;
56373;SDS011;58212;47.034;7.376;2023-04-03T09:07:43;4.60;;;4.20;;
56373;SDS011;58212;47.034;7.376;2023-04-03T09:10:15;4.55;;;4.15;;
56373;SDS011;58212;47.034;7.376;2023-04-03T09:12:49;4.18;;;3.78;;
56373;SDS011;58212;47.034;7.376;2023-04-03T09:15:26;4.35;;;4.00;;
56373;SDS011;58212;47.034;7.376;2023-04-03T09:17:57;5.00;;;4.57;;
56373;SDS011;58212;47.034;7.376;2023-04-03T09:20:31;5.78;;;5.18;;
56373;SDS011;58212;47.034;7.376;2023-04-03T09:23:09;6.55;;;5.45;;
56373;SDS011;58212;47.034;7.376;2023-04-03T09:25:44;4.50;;;4.10;;
56373;SDS011;58212;47.034;7.376;2023-04-03T09:28:11;3.67;;;3.30;;
56373;SDS011;58212;47.034;7.376;2023-04-03T09:30:40;5.28;;;4.20;;
56373;SDS011;58212;47.034;7.376;2023-04-03T09:33:07;4.35;;;3.50;;
56373;SDS011;58212;47.034;7.376;2023-04-03T09:35:36;3.10;;;2.90;;
56373;SDS011;58212;47.034;7.376;2023-04-03T09:38:14;2.80;;;2.60;;
56373;SDS011;58212;47.034;7.376;2023-04-03T09:40:45;3.20;;;3.00;;
56373;SDS011;58212;47.034;7.376;2023-04-03T09:43:22;3.15;;;2.85;;
56373;SDS011;58212;47.034;7.376;2023-04-03T09:45:52;3.65;;;3.35;;
56373;SDS011;58212;47.034;7.376;2023-04-03T09:48:20;4.00;;;3.70;;
56373;SDS011;58212;47.034;7.376;2023-04-03T09:50:58;3.33;;;3.03;;
56373;SDS011;58212;47.034;7.376;2023-04-03T09:53:31;4.22;;;3.83;;
56373;SDS011;58212;47.034;7.376;2023-04-03T09:56:03;3.47;;;3.17;;
56373;SDS011;58212;47.034;7.376;2023-04-03T09:58:32;3.75;;;3.45;;
56373;SDS011;58212;47.034;7.376;2023-04-03T10:01:04;4.13;;;3.83;;
56373;SDS011;58212;47.034;7.376;2023-04-03T10:03:32;3.80;;;3.45;;
56373;SDS011;58212;47.034;7.376;2023-04-03T10:06:01;3.80;;;3.50;;
56373;SDS011;58212;47.034;7.376;2023-04-03T10:08:29;3.72;;;3.25;;
56373;SDS011;58212;47.034;7.376;2023-04-03T10:11:10;3.40;;;3.10;;
56373;SDS011;58212;47.034;7.376;2023-04-03T10:13:51;3.35;;;2.95;;
56373;SDS011;58212;47.034;7.376;2023-04-03T10:16:23;3.15;;;2.95;;
56373;SDS011;58212;47.034;7.376;2023-04-03T10:19:06;3.47;;;3.17;;
56373;SDS011;58212;47.034;7.376;2023-04-03T10:21:53;3.85;;;2.97;;
56373;SDS011;58212;47.034;7.376;2023-04-03T10:24:28;3.65;;;3.35;;
56373;SDS011;58212;47.034;7.376;2023-04-03T10:27:04;3.38;;;3.08;;
56373;SDS011;58212;47.034;7.376;2023-04-03T10:29:39;3.13;;;2.92;;
56373;SDS011;58212;47.034;7.376;2023-04-03T10:32:15;3.22;;;2.88;;
56373;SDS011;58212;47.034;7.376;2023-04-03T10:34:54;3.67;;;3.20;;
56373;SDS011;58212;47.034;7.376;2023-04-03T10:37:29;3.40;;;3.10;;
56373;SDS011;58212;47.034;7.376;2023-04-03T10:40:04;3.63;;;3.13;;
56373;SDS011;58212;47.034;7.376;2023-04-03T10:42:44;3.55;;;2.92;;
56373;SDS011;58212;47.034;7.376;2023-04-03T10:45:18;3.33;;;3.05;;
56373;SDS011;58212;47.034;7.376;2023-04-03T10:47:53;2.85;;;2.65;;
56373;SDS011;58212;47.034;7.376;2023-04-03T10:50:42;3.38;;;3.05;;
56373;SDS011;58212;47.034;7.376;2023-04-03T10:53:18;3.67;;;2.95;;
56373;SDS011;58212;47.034;7.376;2023-04-03T10:55:53;3.60;;;3.03;;
56373;SDS011;58212;47.034;7.376;2023-04-03T10:58:28;3.60;;;3.30;;
56373;SDS011;58212;47.034;7.376;2023-04-03T11:00:59;3.28;;;2.97;;
56373;SDS011;58212;47.034;7.376;2023-04-03T11:03:34;3.38;;;3.08;;
56373;SDS011;58212;47.034;7.376;2023-04-03T11:06:05;3.50;;;3.20;;
56373;SDS011;58212;47.034;7.376;2023-04-03T11:08:34;2.90;;;2.70;;
56373;SDS011;58212;47.034;7.376;2023-04-03T11:11:06;2.70;;;2.38;;
56373;SDS011;58212;47.034;7.376;2023-04-03T11:13:40;3.17;;;2.97;;
56373;SDS011;58212;47.034;7.376;2023-04-03T11:16:12;3.55;;;3.25;;
56373;SDS011;58212;47.034;7.376;2023-04-03T11:18:46;3.33;;;3.03;;
56373;SDS011;58212;47.034;7.376;2023-04-03T11:21:17;2.63;;;2.42;;
56373;SDS011;58212;47.034;7.376;2023-04-03T11:23:48;2.97;;;2.78;;
56373;SDS011;58212;47.034;7.376;2023-04-03T11:26:17;3.92;;;2.80;;
56373;SDS011;58212;47.034;7.376;2023-04-03T11:28:47;3.15;;;2.80;;
56373;SDS011;58212;47.034;7.376;2023-04-03T11:31:23;4.63;;;3.17;;
56373;SDS011;58212;47.034;7.376;2023-04-03T11:34:03;2.92;;;2.72;;
56373;SDS011;58212;47.034;7.376;2023-04-03T11:36:41;3.20;;;2.67;;
56373;SDS011;58212;47.034;7.376;2023-04-03T11:39:16;2.70;;;2.50;;
56373;SDS011;58212;47.034;7.376;2023-04-03T11:41:48;3.05;;;2.75;;
56373;SDS011;58212;47.034;7.376;2023-04-03T11:44:34;4.40;;;2.53;;
56373;SDS011;58212;47.034;7.376;2023-04-03T11:47:03;2.80;;;2.60;;
56373;SDS011;58212;47.034;7.376;2023-04-03T11:58:23;3.08;;;2.70;;
56373;SDS011;58212;47.034;7.376;2023-04-03T12:00:55;2.88;;;2.67;;
56373;SDS011;58212;47.034;7.376;2023-04-03T12:12:42;3.35;;;3.05;;
56373;SDS011;58212;47.034;7.376;2023-04-03T12:15:23;3.08;;;2.70;;
56373;SDS011;58212;47.034;7.376;2023-04-03T12:21:17;2.90;;;2.70;;
56373;SDS011;58212;47.034;7.376;2023-04-03T12:23:56;3.13;;;2.80;;
56373;SDS011;58212;47.034;7.376;2023-04-03T12:26:27;2.95;;;2.35;;
56373;SDS011;58212;47.034;7.376;2023-04-03T12:28:57;2.75;;;2.53;;
56373;SDS011;58212;47.034;7.376;2023-04-03T12:31:25;2.83;;;2.63;;
56373;SDS011;58212;47.034;7.376;2023-04-03T12:34:12;2.90;;;2.60;;
56373;SDS011;58212;47.034;7.376;2023-04-03T12:36:53;3.85;;;2.90;;
56373;SDS011;58212;47.034;7.376;2023-04-03T12:39:36;3.25;;;2.63;;
56373;SDS011;58212;47.034;7.376;2023-04-03T12:42:16;2.60;;;2.40;;
56373;SDS011;58212;47.034;7.376;2023-04-03T12:44:59;2.92;;;2.42;;
56373;SDS011;58212;47.034;7.376;2023-04-03T12:47:32;2.80;;;2.60;;
56373;SDS011;58212;47.034;7.376;2023-04-03T12:50:03;3.08;;;2.47;;
56373;SDS011;58212;47.034;7.376;2023-04-03T12:52:44;2.65;;;2.45;;
56373;SDS011;58212;47.034;7.376;2023-04-03T12:55:15;3.13;;;2.70;;
56373;SDS011;58212;47.034;7.376;2023-04-03T12:57:43;2.45;;;2.25;;
56373;SDS011;58212;47.034;7.376;2023-04-03T13:00:20;2.58;;;2.38;;
56373;SDS011;58212;47.034;7.376;2023-04-03T13:02:52;3.33;;;2.63;;
56373;SDS011;58212;47.034;7.376;2023-04-03T13:05:21;3.38;;;2.50;;
56373;SDS011;58212;47.034;7.376;2023-04-03T13:07:52;2.70;;;2.50;;
56373;SDS011;58212;47.034;7.376;2023-04-03T13:10:24;2.33;;;2.13;;
56373;SDS011;58212;47.034;7.376;2023-04-03T13:12:52;3.42;;;2.38;;
56373;SDS011;58212;47.034;7.376;2023-04-03T13:15:22;2.55;;;2.35;;
56373;SDS011;58212;47.034;7.376;2023-04-03T13:17:51;2.70;;;2.50;;
56373;SDS011;58212;47.034;7.376;2023-04-03T13:20:20;3.08;;;2.10;;
56373;SDS011;58212;47.034;7.376;2023-04-03T13:22:53;2.75;;;2.25;;
56373;SDS011;58212;47.034;7.376;2023-04-03T13:25:24;3.40;;;2.35;;
56373;SDS011;58212;47.034;7.376;2023-04-03T13:27:53;2.40;;;2.20;;
56373;SDS011;58212;47.034;7.376;2023-04-03T13:30:24;2.42;;;2.13;;
56373;SDS011;58212;47.034;7.376;2023-04-03T13:32:56;2.17;;;2.05;;
56373;SDS011;58212;47.034;7.376;2023-04-03T13:35:26;2.30;;;2.10;;
56373;SDS011;58212;47.034;7.376;2023-04-03T13:38:04;1.88;;;1.77;;
56373;SDS011;58212;47.034;7.376;2023-04-03T13:40:35;2.20;;;2.00;;
56373;SDS011;58212;47.034;7.376;2023-04-03T13:43:17;2.65;;;2.45;;
56373;SDS011;58212;47.034;7.376;2023-04-03T13:48:50;2.83;;;2.35;;
56373;SDS011;58212;47.034;7.376;2023-04-03T13:51:18;2.60;;;2.40;;
56373;SDS011;58212;47.034;7.376;2023-04-03T13:53:51;2.35;;;2.20;;
56373;SDS011;58212;47.034;7.376;2023-04-03T13:56:22;2.58;;;2.38;;
56373;SDS011;58212;47.034;7.376;2023-04-03T13:58:53;4.32;;;2.38;;
56373;SDS011;58212;47.034;7.376;2023-04-03T14:01:26;2.63;;;2.42;;
56373;SDS011;58212;47.034;7.376;2023-04-03T14:04:10;2.33;;;2.13;;
56373;SDS011;58212;47.034;7.376;2023-04-03T14:06:40;3.92;;;2.30;;
56373;SDS011;58212;47.034;7.376;2023-04-03T14:09:09;2.40;;;2.20;;
56373;SDS011;58212;47.034;7.376;2023-04-03T14:11:39;3.00;;;2.80;;
56373;SDS011;58212;47.034;7.376;2023-04-03T14:14:10;2.58;;;2.38;;
56373;SDS011;58212;47.034;7.376;2023-04-03T14:16:40;2.60;;;2.40;;
56373;SDS011;58212;47.034;7.376;2023-04-03T14:19:11;2.40;;;2.20;;
56373;SDS011;58212;47.034;7.376;2023-04-03T14:21:45;2.53;;;2.30;;
56373;SDS011;58212;47.034;7.376;2023-04-03T14:24:14;2.95;;;2.72;;
56373;SDS011;58212;47.034;7.376;2023-04-03T14:26:41;2.70;;;2.50;;
56373;SDS011;58212;47.034;7.376;2023-04-03T14:29:10;2.55;;;2.35;;
56373;SDS011;58212;47.034;7.376;2023-04-03T14:31:38;2.03;;;1.92;;
56373;SDS011;58212;47.034;7.376;2023-04-03T14:34:06;4.72;;;2.20;;
56373;SDS011;58212;47.034;7.376;2023-04-03T14:36:33;2.75;;;2.42;;
56373;SDS011;58212;47.034;7.376;2023-04-03T14:39:00;2.55;;;2.35;;
56373;SDS011;58212;47.034;7.376;2023-04-03T14:41:29;3.03;;;2.40;;
56373;SDS011;58212;47.034;7.376;2023-04-03T14:43:56;2.55;;;2.35;;
56373;SDS011;58212;47.034;7.376;2023-04-03T14:46:24;2.50;;;2.30;;
56373;SDS011;58212;47.034;7.376;2023-04-03T14:48:55;2.70;;;2.50;;
56373;SDS011;58212;47.034;7.376;2023-04-03T14:51:22;2.92;;;2.63;;
56373;SDS011;58212;47.034;7.376;2023-04-03T14:53:49;2.67;;;2.30;;
56373;SDS011;58212;47.034;7.376;2023-04-03T14:56:18;2.80;;;2.60;;
56373;SDS011;58212;47.034;7.376;2023-04-03T14:58:49;3.15;;;2.92;;
56373;SDS011;58212;47.034;7.376;2023-04-03T15:01:21;4.00;;;3.28;;
56373;SDS011;58212;47.034;7.376;2023-04-03T15:03:48;3.42;;;2.80;;
56373;SDS011;58212;47.034;7.376;2023-04-03T15:06:15;2.85;;;2.15;;
56373;SDS011;58212;47.034;7.376;2023-04-03T15:08:43;2.88;;;2.60;;
56373;SDS011;58212;47.034;7.376;2023-04-03T15:11:13;2.80;;;2.60;;
56373;SDS011;58212;47.034;7.376;2023-04-03T15:13:40;2.80;;;2.42;;
56373;SDS011;58212;47.034;7.376;2023-04-03T15:16:12;2.97;;;2.63;;
56373;SDS011;58212;47.034;7.376;2023-04-03T15:18:42;2.85;;;2.65;;
56373;SDS011;58212;47.034;7.376;2023-04-03T15:21:09;2.83;;;2.60;;
56373;SDS011;58212;47.034;7.376;2023-04-03T15:23:36;2.80;;;2.60;;
56373;SDS011;58212;47.034;7.376;2023-04-03T15:26:03;3.35;;;3.03;;
56373;SDS011;58212;47.034;7.376;2023-04-03T15:28:32;3.10;;;2.70;;
56373;SDS011;58212;47.034;7.376;2023-04-03T15:31:00;3.17;;;2.47;;
56373;SDS011;58212;47.034;7.376;2023-04-03T15:33:29;3.20;;;2.90;;